FDX29 MSLP-MMOX
Flight info
| Callsign | FDX29 |
|---|---|
| Flight time | N/A |
| Altitude | 28000 |
| Route | OBRAS2W OBRAS DCT IZT J13 AVINA DCT OAX |
| Aircraft | B722/M-SDFGHRWY/C |
Departure
| Time | 2026-05-05 17:32 |
|---|---|
| Airport | El Salvador International Airport Saint Óscar Arnulfo Romero y Galdámez (MSLP) |
Arrival
| Time | N/A |
|---|---|
| Airport | Xoxocotlán International Airport (MMOX) |
| Time | Latitude | Longitude | Altitude | Speed | Heading |
|---|---|---|---|---|---|
| 2026-05-05 17:29 | 13.44516 | -89.04916 | 98 ft | 29 kts | 69° |
| 2026-05-05 17:29 | 13.44587 | -89.04717 | 96 ft | 30 kts | 70° |
| 2026-05-05 17:29 | 13.44659 | -89.04514 | 96 ft | 31 kts | 70° |
| 2026-05-05 17:29 | 13.44724 | -89.04326 | 96 ft | 18 kts | 71° |
| 2026-05-05 17:30 | 13.44698 | -89.04237 | 99 ft | 13 kts | 154° |
| 2026-05-05 17:30 | 13.44615 | -89.04206 | 105 ft | 10 kts | 161° |
| 2026-05-05 17:30 | 13.44582 | -89.04204 | 104 ft | 3 kts | 219° |
| 2026-05-05 17:30 | 13.44569 | -89.04229 | 104 ft | 5 kts | 251° |
| 2026-05-05 17:31 | 13.44544 | -89.04298 | 101 ft | 16 kts | 249° |
| 2026-05-05 17:31 | 13.44440 | -89.04596 | 102 ft | 74 kts | 250° |
| 2026-05-05 17:31 | 13.44196 | -89.05279 | 98 ft | 127 kts | 250° |
| 2026-05-05 17:31 | 13.43847 | -89.06237 | 197 ft | 150 kts | 250° |
| 2026-05-05 17:32 | 13.43499 | -89.07261 | 628 ft | 154 kts | 247° |
| 2026-05-05 17:32 | 13.43123 | -89.08306 | 1035 ft | 162 kts | 248° |
| 2026-05-05 17:32 | 13.42700 | -89.09408 | 1402 ft | 172 kts | 245° |
| 2026-05-05 17:32 | 13.42266 | -89.10558 | 1988 ft | 172 kts | 253° |
| 2026-05-05 17:33 | 13.41949 | -89.11737 | 2554 ft | 174 kts | 253° |
| 2026-05-05 17:33 | 13.41689 | -89.13015 | 2891 ft | 190 kts | 266° |
| 2026-05-05 17:33 | 13.41684 | -89.14407 | 3341 ft | 200 kts | 271° |
| 2026-05-05 17:33 | 13.41694 | -89.15864 | 3785 ft | 204 kts | 271° |
| 2026-05-05 17:34 | 13.41713 | -89.17313 | 4347 ft | 200 kts | 271° |
| 2026-05-05 17:34 | 13.41747 | -89.18727 | 4882 ft | 196 kts | 274° |
| 2026-05-05 17:34 | 13.41783 | -89.20113 | 5394 ft | 191 kts | 275° |
| 2026-05-05 17:34 | 13.41966 | -89.21429 | 5888 ft | 182 kts | 292° |
| 2026-05-05 17:35 | 13.42548 | -89.22518 | 6390 ft | 168 kts | 317° |
| 2026-05-05 17:35 | 13.43470 | -89.23333 | 6530 ft | 179 kts | 321° |
| 2026-05-05 17:35 | 13.44442 | -89.24193 | 6788 ft | 192 kts | 320° |
| 2026-05-05 17:35 | 13.45445 | -89.25212 | 7026 ft | 212 kts | 312° |
| 2026-05-05 17:36 | 13.46357 | -89.26462 | 7442 ft | 225 kts | 307° |
| 2026-05-05 17:36 | 13.47274 | -89.27787 | 7908 ft | 235 kts | 307° |
| 2026-05-05 17:36 | 13.48250 | -89.29182 | 8382 ft | 249 kts | 307° |
| 2026-05-05 17:36 | 13.49303 | -89.30685 | 8765 ft | 266 kts | 307° |
| 2026-05-05 17:37 | 13.50182 | -89.31937 | 9294 ft | 271 kts | 307° |